createdAt,value
2018-06-30T05:04:26.659Z,72.90
2018-06-30T05:09:30.752Z,72.84
2018-06-30T05:14:34.086Z,72.75
2018-06-30T05:19:56.237Z,72.63
2018-06-30T05:25:00.341Z,72.40
2018-06-30T05:30:03.726Z,72.24
2018-06-30T05:35:07.067Z,71.96
2018-06-30T05:40:10.502Z,71.54
2018-06-30T05:45:13.887Z,71.35
2018-06-30T05:50:23.346Z,70.63
2018-06-30T05:55:26.851Z,70.32
2018-06-30T06:00:30.208Z,70.22
2018-06-30T06:05:34.300Z,70.12
2018-06-30T06:10:57.526Z,69.82
2018-06-30T06:16:01.739Z,69.62
2018-06-30T06:21:05.118Z,68.42
2018-06-30T06:26:08.448Z,68.92
2018-06-30T06:31:11.786Z,68.55
2018-06-30T06:36:15.122Z,68.06
2018-06-30T06:41:19.213Z,67.30
2018-06-30T06:46:22.552Z,67.05
2018-06-30T06:51:26.639Z,66.94
2018-06-30T06:56:29.967Z,67.81
2018-06-30T07:01:33.304Z,67.95
2018-06-30T07:06:37.407Z,67.91
2018-06-30T07:11:40.733Z,67.36
2018-06-30T07:16:44.072Z,66.49
2018-06-30T07:21:48.461Z,66.15
2018-06-30T07:26:51.891Z,65.42
2018-06-30T07:31:55.214Z,66.07
2018-06-30T07:36:59.290Z,65.77
2018-06-30T07:42:02.627Z,65.57
2018-06-30T07:47:05.959Z,65.72
2018-06-30T07:52:09.298Z,65.22
2018-06-30T07:57:13.396Z,62.91
2018-06-30T08:02:16.731Z,63.75
2018-06-30T08:07:20.097Z,62.53
2018-06-30T08:12:23.763Z,63.38
2018-06-30T08:17:27.117Z,62.28
2018-06-30T08:22:30.451Z,61.85
2018-06-30T08:27:33.813Z,62.00
2018-06-30T08:32:37.922Z,61.48
2018-06-30T08:37:41.280Z,60.66
2018-06-30T08:42:44.644Z,60.69
2018-06-30T08:47:48.035Z,60.26
2018-06-30T08:52:51.574Z,60.62
2018-06-30T08:57:54.936Z,60.07
2018-06-30T09:02:58.292Z,59.38
2018-06-30T09:08:01.641Z,59.54
2018-06-30T09:13:04.988Z,59.45
2018-06-30T09:18:08.335Z,58.70
2018-06-30T09:23:11.670Z,58.14
2018-06-30T09:28:15.107Z,58.60
2018-06-30T09:33:18.469Z,57.35
2018-06-30T09:38:21.803Z,55.95
2018-06-30T09:43:25.131Z,53.79
2018-06-30T09:48:29.230Z,52.94
2018-06-30T09:53:32.573Z,53.78
2018-06-30T09:58:35.901Z,53.16
2018-06-30T10:03:39.994Z,53.36
2018-06-30T10:08:44.443Z,52.09
2018-06-30T10:13:48.095Z,50.00
2018-06-30T10:18:52.467Z,49.55
2018-06-30T10:23:56.511Z,48.66
2018-06-30T10:29:00.173Z,47.71
2018-06-30T10:34:04.807Z,48.36
2018-06-30T10:39:08.497Z,48.34
2018-06-30T10:44:12.739Z,48.36
2018-06-30T10:49:16.282Z,48.36
2018-06-30T10:54:19.823Z,48.07
2018-06-30T10:59:23.424Z,46.06
2018-06-30T11:04:27.087Z,47.69
2018-06-30T11:09:30.699Z,46.94
2018-06-30T11:14:34.792Z,44.02
2018-06-30T11:19:39.395Z,45.32
2018-06-30T11:24:43.979Z,44.12
2018-06-30T11:29:47.641Z,43.43
2018-06-30T11:34:51.324Z,42.06
2018-06-30T11:39:55.102Z,42.35
2018-06-30T11:44:58.721Z,41.76
2018-06-30T11:50:02.088Z,40.30
2018-06-30T11:55:05.414Z,40.06
2018-06-30T12:00:08.760Z,38.16
2018-06-30T12:05:12.091Z,39.27
2018-06-30T12:10:15.430Z,37.48
2018-06-30T12:15:19.551Z,38.01
2018-06-30T12:20:22.907Z,36.28
2018-06-30T12:25:26.358Z,35.90
2018-06-30T12:30:29.683Z,37.44
2018-06-30T12:35:33.015Z,37.33
2018-06-30T12:40:43.045Z,37.10
2018-06-30T12:45:46.474Z,35.22
2018-06-30T12:51:01.006Z,38.16
2018-06-30T12:56:04.339Z,36.59
2018-06-30T13:01:07.668Z,35.94
2018-06-30T13:06:11.015Z,36.67
2018-06-30T13:11:15.136Z,35.92
2018-06-30T13:16:19.243Z,36.27
2018-06-30T13:21:22.584Z,34.96
2018-06-30T13:26:27.017Z,34.03
2018-06-30T13:31:31.107Z,34.30
2018-06-30T13:36:34.441Z,35.13
2018-06-30T13:41:37.774Z,36.83
2018-06-30T13:46:41.948Z,37.97
2018-06-30T13:51:45.280Z,37.44
2018-06-30T13:56:48.617Z,37.47
2018-06-30T14:01:51.980Z,37.06
2018-06-30T14:06:55.310Z,36.14
2018-06-30T14:11:58.642Z,35.17
2018-06-30T14:17:01.972Z,35.27
2018-06-30T14:22:05.314Z,33.67
2018-06-30T14:27:08.643Z,33.66
2018-06-30T14:32:12.006Z,33.03
2018-06-30T14:37:15.334Z,31.70
2018-06-30T14:42:18.715Z,33.31
2018-06-30T14:47:22.078Z,34.65
2018-06-30T14:52:25.414Z,34.30
2018-06-30T14:57:28.752Z,33.09
2018-06-30T15:02:32.267Z,32.75
2018-06-30T15:07:36.407Z,31.57
2018-06-30T15:12:39.792Z,31.66
2018-06-30T15:17:43.090Z,31.37
2018-06-30T15:22:46.415Z,31.91
2018-06-30T15:27:49.743Z,31.01
2018-06-30T15:32:53.079Z,29.66
2018-06-30T15:37:56.422Z,30.09
2018-06-30T15:42:59.773Z,30.40
2018-06-30T15:48:03.114Z,30.06
2018-06-30T15:53:06.465Z,29.10
2018-06-30T15:58:09.815Z,28.96
2018-06-30T16:03:13.165Z,28.69
2018-06-30T16:08:16.600Z,28.27
2018-06-30T16:13:19.931Z,28.04
2018-06-30T16:18:23.652Z,28.09
2018-06-30T16:23:27.004Z,27.74
2018-06-30T16:28:30.342Z,28.26
2018-06-30T16:33:33.687Z,27.84
2018-06-30T16:38:37.022Z,27.45
2018-06-30T16:43:40.365Z,28.29
2018-06-30T16:48:43.690Z,29.23
2018-06-30T16:53:47.027Z,27.71
2018-06-30T16:58:50.495Z,27.50
2018-06-30T17:03:53.702Z,27.17
2018-06-30T17:08:57.039Z,27.63
2018-06-30T17:14:00.381Z,27.52
2018-06-30T17:19:03.720Z,27.83
2018-06-30T17:24:07.055Z,28.60
2018-06-30T17:29:10.388Z,28.67
2018-06-30T17:34:13.724Z,28.69
2018-06-30T17:39:17.058Z,28.75
2018-06-30T17:44:20.388Z,28.98
2018-06-30T17:49:38.088Z,29.84
2018-06-30T17:54:42.186Z,29.03
2018-06-30T17:59:45.510Z,29.39
2018-06-30T18:04:48.847Z,28.82
2018-06-30T18:10:02.995Z,28.52
2018-06-30T18:15:06.282Z,28.58
2018-06-30T18:20:09.610Z,27.88
2018-06-30T18:25:12.951Z,27.29
2018-06-30T18:30:27.480Z,27.60
2018-06-30T18:35:30.809Z,27.08
2018-06-30T18:40:47.646Z,27.12
2018-06-30T18:45:50.975Z,27.27
2018-06-30T18:50:55.074Z,27.26
2018-06-30T18:55:58.398Z,27.34
2018-06-30T19:01:01.731Z,27.47
2018-06-30T19:06:05.833Z,27.67
2018-06-30T19:11:09.162Z,27.96
2018-06-30T19:16:12.511Z,28.06
2018-06-30T19:21:15.912Z,28.12
2018-06-30T19:26:19.205Z,28.17
2018-06-30T19:31:23.343Z,28.20
2018-06-30T19:36:27.456Z,28.29
2018-06-30T19:41:30.803Z,28.22
2018-06-30T19:46:34.128Z,28.08
2018-06-30T19:51:37.453Z,27.93
2018-06-30T19:56:40.783Z,28.00
2018-06-30T20:01:44.110Z,27.96
2018-06-30T20:06:47.445Z,28.09
2018-06-30T20:11:51.538Z,28.04
2018-06-30T20:16:54.870Z,28.24
2018-06-30T20:21:58.202Z,28.31
2018-06-30T20:27:02.641Z,28.15
2018-06-30T20:32:06.315Z,28.02
2018-06-30T20:37:09.748Z,28.12
2018-06-30T20:42:13.247Z,28.16
2018-06-30T20:47:16.663Z,28.34
2018-06-30T20:52:20.010Z,28.49
2018-06-30T20:57:24.116Z,28.66
2018-06-30T21:02:27.477Z,28.65
2018-06-30T21:07:30.816Z,28.75
2018-06-30T21:12:34.152Z,28.92
2018-06-30T21:17:37.489Z,29.10
2018-06-30T21:22:40.831Z,29.17
2018-06-30T21:27:44.169Z,29.29
2018-06-30T21:32:47.520Z,29.59
2018-06-30T21:37:50.842Z,29.67
2018-06-30T21:42:54.171Z,29.84
2018-06-30T21:47:58.272Z,30.10
2018-06-30T21:53:02.375Z,30.73
2018-06-30T21:58:05.703Z,31.42
2018-06-30T22:03:09.030Z,31.80
2018-06-30T22:08:12.383Z,32.10
2018-06-30T22:13:15.711Z,32.49
2018-06-30T22:18:19.082Z,33.08
2018-06-30T22:23:22.374Z,33.52
2018-06-30T22:28:25.710Z,34.40
